Hackett, Wisconsin
Current Conditions -  °F | °C
As of 10:15 PM on Saturday 25 Oct 2014 (Local Time) from KPBH Reporting Station
Clear Clear  
Wind Chill: 42°   Ceiling: Unl
Heat Index: 46°   Visibility: 10mi
Dew Point: 25°   Wind: 7mph
Humidity: 43%   Direction: 300°WNW
Pressure: 29.96"   Gusts: NA
Location:  45.7439°N, 90.2959°W
Report Text: KPBH 260315Z AUTO 30006KT 10SM CLR 08/M04 A2996 RMK AO2 T00781040
Loading
Personal Weather Stations






























Interactive Weather Map
Tropical Storm Tracking
New forecast layout! Learn more

10-Day Weather Forecast

Advertisements
Track Severe Weather on mobile